Chetwynd Airport
CYCQ : rendu visible

Aérodrome :











RETROUVEZ-NOUS SUR...

 
LOGIN :

S'inscrire | Disclaimer

   EN    FR    IT 

 









Légende :    VFR   VFR Marginal   IFR   IFR Intensif   IFR Très Intensif
Visi : 
Plafond : 
>= 8 km
>= 3000ft
5 à 8 km
1000 à 3000 ft
1500m à 5 km
500 à 1000 ft
800 à 1500m
200 à 500 ft
< 800m
< 200 ft
Symboles :   Orages  Brouillard  Fortes neiges  Fortes précipitations  Vent > 20 kt






- Altitude de l'aérodrome : 2000 ft
- Code IATA : YCQ


CYCQ - Chetwynd

DERNIER METAR :
  • 221600Z 24019G27KT 35SM FEW040 FEW100 FEW200 M00/M10 A2972 RMK SC1AC1CI1 CI TR SLP095

METARs EXPIRÉS :
  • 221500Z 24017G23KT 35SM FEW040 FEW100 FEW200 M01/M10 A2970 RMK SC1AC1CI1 AC TR CI TR SLP089
  • 221400Z 23016KT 10SM FEW030 FEW100 SCT150 BKN200 M00/M10 A2968 RMK SC1AC1AC2CI1 SLP079

TAF N/A



MET'MAP, la Météo Aéronautique d'un coup d'oeil ! - Copyright ORBIFLY Décembre 2007 - Disclaimer

ORBIFLY MET'MAP TEAM :

Programmation & Développement : Alexandra Zaïnal
Sur une idée originale de : Baudouin d'Aumeries
Assistance à la programmation : Marc-Olivier Méhu
Soutien technique & logistique : Manuel Goepfert

Contact : metmap@orbifly.com




SOURCES & CREDITS :

   NOAA       Earth
Advisory